sensor_id;sensor_type;location;lat;lon;timestamp;pressure;altitude;pressure_sealevel;temperature;humidity
75852;BME280;64500;52.632;20.656;2023-06-10T00:01:05;100467.29;;;16.61;47.81
75852;BME280;64500;52.632;20.656;2023-06-10T00:07:04;100468.80;;;16.55;48.34
75852;BME280;64500;52.632;20.656;2023-06-10T00:09:39;100466.64;;;16.48;48.30
75852;BME280;64500;52.632;20.656;2023-06-10T00:12:21;100467.42;;;16.43;48.98
75852;BME280;64500;52.632;20.656;2023-06-10T00:14:50;100466.94;;;16.50;49.36
75852;BME280;64500;52.632;20.656;2023-06-10T00:17:21;100467.44;;;16.54;49.43
75852;BME280;64500;52.632;20.656;2023-06-10T00:19:55;100468.94;;;16.52;49.37
75852;BME280;64500;52.632;20.656;2023-06-10T00:22:42;100469.46;;;16.49;49.69
75852;BME280;64500;52.632;20.656;2023-06-10T00:31:20;100465.96;;;16.29;49.69
75852;BME280;64500;52.632;20.656;2023-06-10T00:36:44;100458.44;;;16.06;49.98
75852;BME280;64500;52.632;20.656;2023-06-10T00:39:27;100454.89;;;16.01;50.56
75852;BME280;64500;52.632;20.656;2023-06-10T00:42:00;100460.13;;;16.00;50.87
75852;BME280;64500;52.632;20.656;2023-06-10T00:44:39;100458.25;;;15.99;51.25
75852;BME280;64500;52.632;20.656;2023-06-10T00:47:16;100453.82;;;15.98;51.22
75852;BME280;64500;52.632;20.656;2023-06-10T00:49:49;100456.86;;;15.94;51.65
75852;BME280;64500;52.632;20.656;2023-06-10T00:55:44;100459.27;;;15.88;51.91
75852;BME280;64500;52.632;20.656;2023-06-10T00:58:13;100465.52;;;15.79;51.96
75852;BME280;64500;52.632;20.656;2023-06-10T01:00:47;100468.77;;;15.70;52.11
75852;BME280;64500;52.632;20.656;2023-06-10T01:03:29;100470.75;;;15.65;52.49
75852;BME280;64500;52.632;20.656;2023-06-10T01:06:42;100468.89;;;15.63;52.91
75852;BME280;64500;52.632;20.656;2023-06-10T01:15:47;100465.16;;;15.62;53.87
75852;BME280;64500;52.632;20.656;2023-06-10T01:18:32;100467.73;;;15.64;54.09
75852;BME280;64500;52.632;20.656;2023-06-10T01:21:21;100465.20;;;15.66;54.71
75852;BME280;64500;52.632;20.656;2023-06-10T01:23:54;100466.59;;;15.67;54.20
75852;BME280;64500;52.632;20.656;2023-06-10T01:26:36;100463.99;;;15.61;54.50
75852;BME280;64500;52.632;20.656;2023-06-10T01:38:19;100467.02;;;15.64;54.94
75852;BME280;64500;52.632;20.656;2023-06-10T01:41:14;100464.30;;;15.66;55.30
75852;BME280;64500;52.632;20.656;2023-06-10T01:43:49;100466.55;;;15.67;55.38
75852;BME280;64500;52.632;20.656;2023-06-10T01:46:24;100467.72;;;15.65;55.44
75852;BME280;64500;52.632;20.656;2023-06-10T01:49:06;100464.72;;;15.64;55.46
75852;BME280;64500;52.632;20.656;2023-06-10T01:51:38;100468.30;;;15.60;55.27
75852;BME280;64500;52.632;20.656;2023-06-10T01:54:10;100470.96;;;15.52;55.34
75852;BME280;64500;52.632;20.656;2023-06-10T01:56:47;100473.73;;;15.50;55.63
75852;BME280;64500;52.632;20.656;2023-06-10T01:59:38;100475.84;;;15.42;55.43
75852;BME280;64500;52.632;20.656;2023-06-10T02:02:18;100482.50;;;15.32;55.38
75852;BME280;64500;52.632;20.656;2023-06-10T02:04:59;100483.38;;;15.24;55.88
75852;BME280;64500;52.632;20.656;2023-06-10T02:07:36;100490.70;;;15.19;55.87
75852;BME280;64500;52.632;20.656;2023-06-10T02:10:45;100493.30;;;15.16;56.34
75852;BME280;64500;52.632;20.656;2023-06-10T02:13:21;100497.02;;;15.08;55.98
75852;BME280;64500;52.632;20.656;2023-06-10T02:15:49;100490.48;;;14.99;56.24
75852;BME280;64500;52.632;20.656;2023-06-10T02:18:16;100496.93;;;14.98;56.73
75852;BME280;64500;52.632;20.656;2023-06-10T02:20:47;100496.50;;;14.95;56.88
75852;BME280;64500;52.632;20.656;2023-06-10T02:23:14;100495.74;;;14.96;57.03
75852;BME280;64500;52.632;20.656;2023-06-10T02:25:42;100493.24;;;14.92;56.80
75852;BME280;64500;52.632;20.656;2023-06-10T02:28:09;100495.24;;;14.86;56.93
75852;BME280;64500;52.632;20.656;2023-06-10T02:30:42;100499.02;;;14.85;57.31
75852;BME280;64500;52.632;20.656;2023-06-10T02:33:12;100501.80;;;14.82;57.15
75852;BME280;64500;52.632;20.656;2023-06-10T02:35:41;100503.98;;;14.77;57.19
75852;BME280;64500;52.632;20.656;2023-06-10T02:38:08;100508.98;;;14.72;57.41
75852;BME280;64500;52.632;20.656;2023-06-10T02:40:35;100512.79;;;14.70;57.52
75852;BME280;64500;52.632;20.656;2023-06-10T02:43:03;100515.79;;;14.66;57.55
75852;BME280;64500;52.632;20.656;2023-06-10T02:45:30;100512.73;;;14.58;57.77
75852;BME280;64500;52.632;20.656;2023-06-10T02:48:16;100514.11;;;14.54;58.07
75852;BME280;64500;52.632;20.656;2023-06-10T02:51:04;100513.52;;;14.55;58.25
75852;BME280;64500;52.632;20.656;2023-06-10T02:53:32;100512.27;;;14.51;58.11
75852;BME280;64500;52.632;20.656;2023-06-10T02:56:08;100517.27;;;14.50;58.37
75852;BME280;64500;52.632;20.656;2023-06-10T02:58:46;100519.84;;;14.53;58.73
75852;BME280;64500;52.632;20.656;2023-06-10T03:01:39;100526.63;;;14.57;58.52
75852;BME280;64500;52.632;20.656;2023-06-10T03:04:19;100530.80;;;14.56;58.67
75852;BME280;64500;52.632;20.656;2023-06-10T03:06:51;100534.99;;;14.57;58.94
75852;BME280;64500;52.632;20.656;2023-06-10T03:09:21;100539.48;;;14.60;58.90
75852;BME280;64500;52.632;20.656;2023-06-10T03:11:51;100539.90;;;14.68;59.03
75852;BME280;64500;52.632;20.656;2023-06-10T03:14:42;100535.42;;;14.92;59.02
75852;BME280;64500;52.632;20.656;2023-06-10T03:20:16;100551.90;;;15.55;58.86
75852;BME280;64500;52.632;20.656;2023-06-10T03:22:51;100548.53;;;15.88;58.55
75852;BME280;64500;52.632;20.656;2023-06-10T03:25:32;100547.58;;;16.18;58.13
75852;BME280;64500;52.632;20.656;2023-06-10T03:28:20;100547.98;;;16.45;57.54
75852;BME280;64500;52.632;20.656;2023-06-10T03:31:01;100551.20;;;16.64;57.01
75852;BME280;64500;52.632;20.656;2023-06-10T03:36:38;100559.71;;;16.99;56.26
75852;BME280;64500;52.632;20.656;2023-06-10T03:44:48;100569.86;;;17.30;55.51
75852;BME280;64500;52.632;20.656;2023-06-10T03:47:36;100570.66;;;17.53;55.20
75852;BME280;64500;52.632;20.656;2023-06-10T03:50:20;100573.02;;;17.85;54.88
75852;BME280;64500;52.632;20.656;2023-06-10T03:56:07;100580.33;;;18.50;53.94
75852;BME280;64500;52.632;20.656;2023-06-10T03:58:45;100576.48;;;18.79;53.51
75852;BME280;64500;52.632;20.656;2023-06-10T04:04:02;100584.63;;;19.69;52.62
75852;BME280;64500;52.632;20.656;2023-06-10T04:09:36;100577.40;;;20.79;51.29
75852;BME280;64500;52.632;20.656;2023-06-10T04:12:12;100579.72;;;21.23;50.50
75852;BME280;64500;52.632;20.656;2023-06-10T04:17:48;100582.80;;;21.83;48.12
75852;BME280;64500;52.632;20.656;2023-06-10T04:23:24;100586.77;;;22.04;45.90
75852;BME280;64500;52.632;20.656;2023-06-10T04:26:00;100591.45;;;22.09;45.88
75852;BME280;64500;52.632;20.656;2023-06-10T04:28:51;100586.77;;;22.46;45.67
75852;BME280;64500;52.632;20.656;2023-06-10T04:31:37;100588.89;;;22.77;45.23
75852;BME280;64500;52.632;20.656;2023-06-10T04:40:23;100586.84;;;23.81;43.33
75852;BME280;64500;52.632;20.656;2023-06-10T04:42:59;100586.20;;;24.17;42.26
75852;BME280;64500;52.632;20.656;2023-06-10T04:45:29;100585.78;;;24.39;41.58
75852;BME280;64500;52.632;20.656;2023-06-10T04:48:05;100584.41;;;24.63;41.06
75852;BME280;64500;52.632;20.656;2023-06-10T04:54:01;100573.28;;;25.14;40.15
75852;BME280;64500;52.632;20.656;2023-06-10T04:57:07;100581.32;;;25.22;39.10
75852;BME280;64500;52.632;20.656;2023-06-10T05:00:14;100577.81;;;25.49;38.73
75852;BME280;64500;52.632;20.656;2023-06-10T05:02:53;100581.57;;;25.73;38.09
75852;BME280;64500;52.632;20.656;2023-06-10T05:05:48;100587.61;;;25.98;37.88
75852;BME280;64500;52.632;20.656;2023-06-10T05:11:07;100588.80;;;26.37;37.42
75852;BME280;64500;52.632;20.656;2023-06-10T05:13:48;100589.41;;;26.85;37.15
75852;BME280;64500;52.632;20.656;2023-06-10T05:16:47;100589.98;;;27.28;36.40
75852;BME280;64500;52.632;20.656;2023-06-10T05:22:24;100594.11;;;28.28;35.00
75852;BME280;64500;52.632;20.656;2023-06-10T05:25:04;100596.45;;;27.92;33.55
75852;BME280;64500;52.632;20.656;2023-06-10T05:27:47;100595.04;;;27.64;33.87
75852;BME280;64500;52.632;20.656;2023-06-10T05:36:14;100602.78;;;27.43;33.77
75852;BME280;64500;52.632;20.656;2023-06-10T05:38:54;100597.49;;;27.02;34.09
75852;BME280;64500;52.632;20.656;2023-06-10T05:41:24;100599.72;;;26.63;34.19
75852;BME280;64500;52.632;20.656;2023-06-10T05:43:52;100603.54;;;26.28;34.58
75852;BME280;64500;52.632;20.656;2023-06-10T05:46:20;100603.75;;;26.27;34.92
75852;BME280;64500;52.632;20.656;2023-06-10T05:48:47;100605.17;;;26.34;34.63
75852;BME280;64500;52.632;20.656;2023-06-10T05:51:15;100605.41;;;25.99;34.76
75852;BME280;64500;52.632;20.656;2023-06-10T05:53:42;100602.34;;;25.62;34.99
75852;BME280;64500;52.632;20.656;2023-06-10T05:56:09;100601.03;;;25.43;35.35
75852;BME280;64500;52.632;20.656;2023-06-10T05:58:37;100605.80;;;25.56;35.79
75852;BME280;64500;52.632;20.656;2023-06-10T06:01:04;100602.53;;;25.80;35.79
75852;BME280;64500;52.632;20.656;2023-06-10T06:03:31;100603.47;;;26.03;35.49
75852;BME280;64500;52.632;20.656;2023-06-10T06:05:58;100604.50;;;26.20;35.43
75852;BME280;64500;52.632;20.656;2023-06-10T06:08:25;100602.84;;;26.17;35.11
75852;BME280;64500;52.632;20.656;2023-06-10T06:10:52;100606.84;;;26.17;35.52
75852;BME280;64500;52.632;20.656;2023-06-10T06:16:24;100601.91;;;27.04;36.30
75852;BME280;64500;52.632;20.656;2023-06-10T06:18:54;100605.57;;;27.14;35.44
75852;BME280;64500;52.632;20.656;2023-06-10T06:21:35;100607.30;;;26.53;34.98
75852;BME280;64500;52.632;20.656;2023-06-10T06:24:15;100610.00;;;25.79;35.66
75852;BME280;64500;52.632;20.656;2023-06-10T06:26:53;100606.79;;;25.24;36.27
75852;BME280;64500;52.632;20.656;2023-06-10T06:29:29;100609.83;;;24.70;36.48
75852;BME280;64500;52.632;20.656;2023-06-10T06:32:08;100607.55;;;24.23;37.10
75852;BME280;64500;52.632;20.656;2023-06-10T06:35:03;100609.17;;;23.74;37.39
75852;BME280;64500;52.632;20.656;2023-06-10T06:40:52;100611.84;;;22.96;38.56
75852;BME280;64500;52.632;20.656;2023-06-10T06:43:49;100614.94;;;22.53;38.98
75852;BME280;64500;52.632;20.656;2023-06-10T06:46:44;100617.50;;;22.13;39.62
75852;BME280;64500;52.632;20.656;2023-06-10T06:49:19;100614.54;;;21.90;40.28
75852;BME280;64500;52.632;20.656;2023-06-10T06:54:37;100620.36;;;21.60;41.17
75852;BME280;64500;52.632;20.656;2023-06-10T06:57:10;100623.67;;;21.56;41.77
75852;BME280;64500;52.632;20.656;2023-06-10T07:02:50;100626.08;;;21.49;42.08
75852;BME280;64500;52.632;20.656;2023-06-10T07:08:15;100623.17;;;21.38;42.28
75852;BME280;64500;52.632;20.656;2023-06-10T07:10:48;100625.70;;;21.35;42.53
75852;BME280;64500;52.632;20.656;2023-06-10T07:13:44;100630.71;;;21.44;42.60
75852;BME280;64500;52.632;20.656;2023-06-10T07:16:50;100632.83;;;21.51;42.62
75852;BME280;64500;52.632;20.656;2023-06-10T07:19:26;100629.79;;;21.47;42.91
75852;BME280;64500;52.632;20.656;2023-06-10T07:21:59;100635.64;;;21.49;42.98
75852;BME280;64500;52.632;20.656;2023-06-10T07:24:38;100637.15;;;21.53;43.05
75852;BME280;64500;52.632;20.656;2023-06-10T07:27:09;100641.76;;;21.62;42.88
75852;BME280;64500;52.632;20.656;2023-06-10T07:32:35;100647.98;;;21.66;42.97
75852;BME280;64500;52.632;20.656;2023-06-10T07:35:11;100642.57;;;21.66;42.90
75852;BME280;64500;52.632;20.656;2023-06-10T07:37:54;100641.96;;;21.67;42.85
75852;BME280;64500;52.632;20.656;2023-06-10T07:40:48;100645.32;;;21.74;42.74
75852;BME280;64500;52.632;20.656;2023-06-10T07:43:39;100641.04;;;21.78;42.57
75852;BME280;64500;52.632;20.656;2023-06-10T07:46:13;100642.19;;;21.80;42.06
75852;BME280;64500;52.632;20.656;2023-06-10T07:49:03;100642.35;;;21.78;42.42
75852;BME280;64500;52.632;20.656;2023-06-10T07:51:57;100649.50;;;21.86;42.56
75852;BME280;64500;52.632;20.656;2023-06-10T07:54:37;100650.59;;;21.89;42.61
75852;BME280;64500;52.632;20.656;2023-06-10T07:57:21;100648.45;;;21.91;42.78
75852;BME280;64500;52.632;20.656;2023-06-10T08:02:50;100658.19;;;22.12;42.61
75852;BME280;64500;52.632;20.656;2023-06-10T08:08:36;100646.89;;;22.01;42.20
75852;BME280;64500;52.632;20.656;2023-06-10T08:11:18;100639.97;;;22.05;41.96
75852;BME280;64500;52.632;20.656;2023-06-10T08:13:48;100650.72;;;22.16;42.21
75852;BME280;64500;52.632;20.656;2023-06-10T08:16:38;100649.10;;;22.25;42.02
75852;BME280;64500;52.632;20.656;2023-06-10T08:19:22;100651.59;;;22.28;41.88
75852;BME280;64500;52.632;20.656;2023-06-10T08:27:33;100651.00;;;22.42;41.81
75852;BME280;64500;52.632;20.656;2023-06-10T08:30:25;100654.70;;;22.41;41.61
75852;BME280;64500;52.632;20.656;2023-06-10T08:32:55;100658.00;;;22.42;41.48
75852;BME280;64500;52.632;20.656;2023-06-10T08:35:36;100658.91;;;22.45;41.19
75852;BME280;64500;52.632;20.656;2023-06-10T08:38:25;100657.39;;;22.41;41.10
75852;BME280;64500;52.632;20.656;2023-06-10T08:44:43;100660.10;;;22.45;40.84
75852;BME280;64500;52.632;20.656;2023-06-10T08:47:31;100658.98;;;22.41;40.25
75852;BME280;64500;52.632;20.656;2023-06-10T08:50:18;100651.42;;;22.38;40.37
75852;BME280;64500;52.632;20.656;2023-06-10T08:52:58;100660.52;;;22.47;40.22
75852;BME280;64500;52.632;20.656;2023-06-10T08:55:33;100656.08;;;22.44;39.96
75852;BME280;64500;52.632;20.656;2023-06-10T08:58:28;100656.66;;;22.41;40.07
75852;BME280;64500;52.632;20.656;2023-06-10T09:01:13;100655.16;;;22.49;39.82
75852;BME280;64500;52.632;20.656;2023-06-10T09:03:49;100655.08;;;22.63;39.61
75852;BME280;64500;52.632;20.656;2023-06-10T09:06:25;100648.70;;;22.67;39.22
75852;BME280;64500;52.632;20.656;2023-06-10T09:09:07;100655.07;;;22.73;39.49
75852;BME280;64500;52.632;20.656;2023-06-10T09:11:34;100654.68;;;22.82;39.39
75852;BME280;64500;52.632;20.656;2023-06-10T09:14:01;100654.25;;;22.85;39.48
75852;BME280;64500;52.632;20.656;2023-06-10T09:16:32;100656.58;;;22.93;39.16
75852;BME280;64500;52.632;20.656;2023-06-10T09:18:59;100657.27;;;23.01;38.89
75852;BME280;64500;52.632;20.656;2023-06-10T09:21:38;100653.73;;;23.05;38.80
75852;BME280;64500;52.632;20.656;2023-06-10T09:24:06;100650.68;;;23.10;38.65
75852;BME280;64500;52.632;20.656;2023-06-10T09:26:33;100654.31;;;23.14;38.39
75852;BME280;64500;52.632;20.656;2023-06-10T09:32:46;100659.50;;;23.20;35.68
75852;BME280;64500;52.632;20.656;2023-06-10T09:38:56;100655.20;;;23.25;36.46
75852;BME280;64500;52.632;20.656;2023-06-10T09:41:40;100645.86;;;23.32;35.05
75852;BME280;64500;52.632;20.656;2023-06-10T09:44:16;100663.08;;;23.33;34.35
75852;BME280;64500;52.632;20.656;2023-06-10T09:46:48;100655.27;;;23.27;34.18
75852;BME280;64500;52.632;20.656;2023-06-10T09:49:16;100651.58;;;23.30;33.13
75852;BME280;64500;52.632;20.656;2023-06-10T09:51:53;100657.98;;;23.31;33.17
75852;BME280;64500;52.632;20.656;2023-06-10T09:54:31;100656.80;;;23.40;33.28
75852;BME280;64500;52.632;20.656;2023-06-10T10:00:31;100653.20;;;23.40;30.08
75852;BME280;64500;52.632;20.656;2023-06-10T10:03:13;100655.39;;;23.42;29.57
75852;BME280;64500;52.632;20.656;2023-06-10T10:06:33;100650.02;;;23.46;30.63
75852;BME280;64500;52.632;20.656;2023-06-10T10:12:21;100646.14;;;23.57;31.13
75852;BME280;64500;52.632;20.656;2023-06-10T10:14:58;100641.22;;;23.53;30.87
75852;BME280;64500;52.632;20.656;2023-06-10T10:17:30;100647.52;;;23.56;30.52
75852;BME280;64500;52.632;20.656;2023-06-10T10:23:10;100645.27;;;23.61;29.59
75852;BME280;64500;52.632;20.656;2023-06-10T10:26:22;100636.45;;;23.69;29.83
75852;BME280;64500;52.632;20.656;2023-06-10T10:29:14;100636.58;;;23.72;30.47
75852;BME280;64500;52.632;20.656;2023-06-10T10:31:46;100642.24;;;23.85;30.37
75852;BME280;64500;52.632;20.656;2023-06-10T10:34:52;100647.32;;;23.92;30.26
75852;BME280;64500;52.632;20.656;2023-06-10T10:37:35;100650.17;;;23.88;30.70
75852;BME280;64500;52.632;20.656;2023-06-10T10:40:28;100641.52;;;23.83;31.25
75852;BME280;64500;52.632;20.656;2023-06-10T10:43:02;100645.83;;;23.86;31.98
75852;BME280;64500;52.632;20.656;2023-06-10T10:46:09;100637.75;;;23.88;31.82
75852;BME280;64500;52.632;20.656;2023-06-10T10:51:33;100637.62;;;23.97;30.96
75852;BME280;64500;52.632;20.656;2023-06-10T10:54:13;100642.05;;;23.93;31.01
75852;BME280;64500;52.632;20.656;2023-06-10T10:59:59;100651.46;;;23.90;30.74
75852;BME280;64500;52.632;20.656;2023-06-10T11:02:42;100643.17;;;23.90;31.21
75852;BME280;64500;52.632;20.656;2023-06-10T11:05:16;100653.61;;;23.95;30.55
75852;BME280;64500;52.632;20.656;2023-06-10T11:07:55;100646.94;;;23.95;30.62
75852;BME280;64500;52.632;20.656;2023-06-10T11:13:30;100642.16;;;24.01;31.33
75852;BME280;64500;52.632;20.656;2023-06-10T11:16:01;100639.02;;;24.11;31.01
75852;BME280;64500;52.632;20.656;2023-06-10T11:18:40;100637.30;;;24.24;30.97
75852;BME280;64500;52.632;20.656;2023-06-10T11:21:49;100641.83;;;24.33;30.20
75852;BME280;64500;52.632;20.656;2023-06-10T11:24:24;100640.70;;;24.34;29.61
75852;BME280;64500;52.632;20.656;2023-06-10T11:26:54;100640.08;;;24.28;29.43
75852;BME280;64500;52.632;20.656;2023-06-10T11:29:21;100635.51;;;24.33;29.55
75852;BME280;64500;52.632;20.656;2023-06-10T11:32:03;100645.27;;;24.38;30.10
75852;BME280;64500;52.632;20.656;2023-06-10T11:34:32;100636.56;;;24.36;31.04
75852;BME280;64500;52.632;20.656;2023-06-10T11:37:05;100631.03;;;24.38;31.20
75852;BME280;64500;52.632;20.656;2023-06-10T11:39:37;100635.95;;;24.44;31.66
75852;BME280;64500;52.632;20.656;2023-06-10T11:42:09;100630.51;;;24.47;31.18
75852;BME280;64500;52.632;20.656;2023-06-10T11:44:48;100631.45;;;24.48;31.64
75852;BME280;64500;52.632;20.656;2023-06-10T11:47:25;100627.45;;;24.59;31.64
75852;BME280;64500;52.632;20.656;2023-06-10T11:49:56;100623.36;;;24.67;31.80
75852;BME280;64500;52.632;20.656;2023-06-10T11:52:27;100631.36;;;24.80;31.91
75852;BME280;64500;52.632;20.656;2023-06-10T11:55:16;100622.61;;;24.73;31.95
75852;BME280;64500;52.632;20.656;2023-06-10T12:00:46;100620.16;;;24.88;32.14
75852;BME280;64500;52.632;20.656;2023-06-10T12:03:25;100622.20;;;25.06;31.37
75852;BME280;64500;52.632;20.656;2023-06-10T12:06:01;100620.11;;;25.05;31.15
75852;BME280;64500;52.632;20.656;2023-06-10T12:08:32;100624.14;;;25.02;30.78
75852;BME280;64500;52.632;20.656;2023-06-10T12:11:22;100623.12;;;24.96;30.70
75852;BME280;64500;52.632;20.656;2023-06-10T12:13:59;100627.06;;;24.95;29.83
75852;BME280;64500;52.632;20.656;2023-06-10T12:16:27;100623.61;;;24.90;30.38
75852;BME280;64500;52.632;20.656;2023-06-10T12:19:04;100618.39;;;24.92;30.82
75852;BME280;64500;52.632;20.656;2023-06-10T12:21:42;100605.67;;;25.04;30.79
75852;BME280;64500;52.632;20.656;2023-06-10T12:24:14;100613.39;;;25.21;30.99
75852;BME280;64500;52.632;20.656;2023-06-10T12:26:53;100621.91;;;25.30;30.27
75852;BME280;64500;52.632;20.656;2023-06-10T12:29:23;100617.85;;;25.11;30.13
75852;BME280;64500;52.632;20.656;2023-06-10T12:32:03;100610.75;;;25.09;30.77
75852;BME280;64500;52.632;20.656;2023-06-10T12:34:48;100618.94;;;25.13;30.45
75852;BME280;64500;52.632;20.656;2023-06-10T12:37:18;100606.66;;;25.12;30.76
75852;BME280;64500;52.632;20.656;2023-06-10T12:39:51;100610.90;;;25.18;30.74
75852;BME280;64500;52.632;20.656;2023-06-10T12:42:33;100608.38;;;25.18;31.01
75852;BME280;64500;52.632;20.656;2023-06-10T12:45:04;100605.98;;;25.25;31.06
75852;BME280;64500;52.632;20.656;2023-06-10T12:47:38;100607.91;;;25.37;30.89
75852;BME280;64500;52.632;20.656;2023-06-10T12:50:18;100606.60;;;25.37;30.06
75852;BME280;64500;52.632;20.656;2023-06-10T12:52:45;100603.20;;;25.37;30.20
75852;BME280;64500;52.632;20.656;2023-06-10T12:55:18;100596.48;;;25.48;30.70
75852;BME280;64500;52.632;20.656;2023-06-10T12:57:50;100586.81;;;25.66;31.22
75852;BME280;64500;52.632;20.656;2023-06-10T13:00:18;100590.34;;;25.80;31.16
75852;BME280;64500;52.632;20.656;2023-06-10T13:02:45;100603.39;;;25.92;30.90
75852;BME280;64500;52.632;20.656;2023-06-10T13:05:13;100601.60;;;25.82;30.37
75852;BME280;64500;52.632;20.656;2023-06-10T13:07:44;100592.94;;;25.71;30.78
75852;BME280;64500;52.632;20.656;2023-06-10T13:10:13;100589.60;;;25.72;30.62
75852;BME280;64500;52.632;20.656;2023-06-10T13:12:40;100579.04;;;25.79;30.43
75852;BME280;64500;52.632;20.656;2023-06-10T13:15:09;100590.08;;;25.77;30.19
75852;BME280;64500;52.632;20.656;2023-06-10T13:17:37;100595.05;;;25.74;30.70
75852;BME280;64500;52.632;20.656;2023-06-10T13:20:05;100589.44;;;25.72;30.36
75852;BME280;64500;52.632;20.656;2023-06-10T13:22:33;100589.61;;;25.63;29.89
75852;BME280;64500;52.632;20.656;2023-06-10T13:25:04;100584.50;;;25.57;30.06
75852;BME280;64500;52.632;20.656;2023-06-10T13:27:34;100572.19;;;25.68;30.44
75852;BME280;64500;52.632;20.656;2023-06-10T13:30:02;100570.02;;;25.78;30.09
75852;BME280;64500;52.632;20.656;2023-06-10T13:32:32;100562.81;;;25.89;30.36
75852;BME280;64500;52.632;20.656;2023-06-10T13:34:59;100584.67;;;26.03;29.77
75852;BME280;64500;52.632;20.656;2023-06-10T13:37:27;100583.89;;;25.95;29.77
75852;BME280;64500;52.632;20.656;2023-06-10T13:39:55;100587.11;;;25.74;29.58
75852;BME280;64500;52.632;20.656;2023-06-10T13:42:25;100577.50;;;25.63;30.13
75852;BME280;64500;52.632;20.656;2023-06-10T13:45:36;100577.51;;;25.80;30.46
75852;BME280;64500;52.632;20.656;2023-06-10T13:51:07;100577.54;;;26.04;30.29
75852;BME280;64500;52.632;20.656;2023-06-10T13:53:55;100583.88;;;25.65;30.05
75852;BME280;64500;52.632;20.656;2023-06-10T13:56:26;100585.08;;;25.33;30.36
75852;BME280;64500;52.632;20.656;2023-06-10T13:59:10;100585.14;;;25.26;30.52
75852;BME280;64500;52.632;20.656;2023-06-10T14:01:45;100583.64;;;25.39;30.73
75852;BME280;64500;52.632;20.656;2023-06-10T14:04:16;100579.08;;;25.53;30.33
75852;BME280;64500;52.632;20.656;2023-06-10T14:06:47;100578.15;;;25.68;30.56
75852;BME280;64500;52.632;20.656;2023-06-10T14:09:28;100580.30;;;25.92;30.76
75852;BME280;64500;52.632;20.656;2023-06-10T14:12:03;100584.66;;;26.05;30.18
75852;BME280;64500;52.632;20.656;2023-06-10T14:15:02;100581.35;;;25.93;30.23
75852;BME280;64500;52.632;20.656;2023-06-10T14:17:37;100581.65;;;25.82;30.28
75852;BME280;64500;52.632;20.656;2023-06-10T14:20:11;100580.33;;;25.77;29.75
75852;BME280;64500;52.632;20.656;2023-06-10T14:22:42;100577.25;;;25.75;29.37
75852;BME280;64500;52.632;20.656;2023-06-10T14:25:15;100573.15;;;25.76;29.05
75852;BME280;64500;52.632;20.656;2023-06-10T14:27:45;100566.57;;;25.79;29.11
75852;BME280;64500;52.632;20.656;2023-06-10T14:30:25;100571.52;;;25.80;29.49
75852;BME280;64500;52.632;20.656;2023-06-10T14:33:03;100570.42;;;25.89;30.00
75852;BME280;64500;52.632;20.656;2023-06-10T14:35:35;100574.79;;;25.91;29.67
75852;BME280;64500;52.632;20.656;2023-06-10T14:38:19;100574.80;;;25.91;29.73
75852;BME280;64500;52.632;20.656;2023-06-10T14:40:46;100562.86;;;25.91;30.02
75852;BME280;64500;52.632;20.656;2023-06-10T14:43:23;100572.02;;;26.00;29.94
75852;BME280;64500;52.632;20.656;2023-06-10T14:45:53;100569.67;;;25.96;29.85
75852;BME280;64500;52.632;20.656;2023-06-10T14:48:44;100567.00;;;26.02;29.73
75852;BME280;64500;52.632;20.656;2023-06-10T14:51:21;100561.27;;;25.97;29.51
75852;BME280;64500;52.632;20.656;2023-06-10T14:53:54;100564.23;;;25.94;29.94
75852;BME280;64500;52.632;20.656;2023-06-10T14:56:26;100549.57;;;26.02;30.05
75852;BME280;64500;52.632;20.656;2023-06-10T14:59:10;100552.29;;;26.21;30.00
75852;BME280;64500;52.632;20.656;2023-06-10T15:01:58;100547.10;;;26.45;30.04
75852;BME280;64500;52.632;20.656;2023-06-10T15:04:30;100559.01;;;26.66;29.89
75852;BME280;64500;52.632;20.656;2023-06-10T15:07:00;100561.69;;;26.54;28.90
75852;BME280;64500;52.632;20.656;2023-06-10T15:09:30;100569.80;;;26.22;29.43
75852;BME280;64500;52.632;20.656;2023-06-10T15:12:08;100570.79;;;25.93;29.64
75852;BME280;64500;52.632;20.656;2023-06-10T15:14:48;100565.70;;;25.68;29.61
75852;BME280;64500;52.632;20.656;2023-06-10T15:17:17;100563.21;;;25.52;29.73
75852;BME280;64500;52.632;20.656;2023-06-10T15:19:47;100561.17;;;25.47;29.78
75852;BME280;64500;52.632;20.656;2023-06-10T15:22:25;100558.98;;;25.47;29.90
75852;BME280;64500;52.632;20.656;2023-06-10T15:24:52;100563.69;;;25.53;30.05
75852;BME280;64500;52.632;20.656;2023-06-10T15:27:22;100563.45;;;25.54;29.72
75852;BME280;64500;52.632;20.656;2023-06-10T15:29:52;100565.92;;;25.44;30.25
75852;BME280;64500;52.632;20.656;2023-06-10T15:32:28;100564.84;;;25.22;30.50
75852;BME280;64500;52.632;20.656;2023-06-10T15:34:57;100562.16;;;25.15;30.93
75852;BME280;64500;52.632;20.656;2023-06-10T15:37:25;100565.66;;;25.23;30.99
75852;BME280;64500;52.632;20.656;2023-06-10T15:39:57;100562.94;;;25.31;30.54
75852;BME280;64500;52.632;20.656;2023-06-10T15:42:26;100565.53;;;25.33;30.37
75852;BME280;64500;52.632;20.656;2023-06-10T15:45:03;100569.23;;;25.34;30.64
75852;BME280;64500;52.632;20.656;2023-06-10T15:47:38;100567.52;;;25.35;30.78
75852;BME280;64500;52.632;20.656;2023-06-10T15:50:20;100567.33;;;25.33;31.14
75852;BME280;64500;52.632;20.656;2023-06-10T15:52:50;100567.50;;;25.36;31.05
75852;BME280;64500;52.632;20.656;2023-06-10T15:55:27;100575.33;;;25.35;30.78